sensor_id;sensor_type;location;lat;lon;timestamp;pressure;altitude;pressure_sealevel;temperature;humidity
25510;BME280;13413;52.336;21.200;2023-04-23T00:00:07;100239.73;;;12.20;52.55
25510;BME280;13413;52.336;21.200;2023-04-23T00:03:06;100239.80;;;12.17;52.70
25510;BME280;13413;52.336;21.200;2023-04-23T00:06:03;100237.54;;;12.15;52.88
25510;BME280;13413;52.336;21.200;2023-04-23T00:09:00;100237.00;;;12.15;52.80
25510;BME280;13413;52.336;21.200;2023-04-23T00:11:56;100234.27;;;12.08;52.82
25510;BME280;13413;52.336;21.200;2023-04-23T00:14:51;100233.08;;;12.00;52.75
25510;BME280;13413;52.336;21.200;2023-04-23T00:17:43;100236.27;;;12.00;53.28
25510;BME280;13413;52.336;21.200;2023-04-23T00:20:37;100233.60;;;12.02;53.37
25510;BME280;13413;52.336;21.200;2023-04-23T00:23:31;100229.98;;;12.02;53.45
25510;BME280;13413;52.336;21.200;2023-04-23T00:26:25;100231.48;;;12.00;53.38
25510;BME280;13413;52.336;21.200;2023-04-23T00:32:12;100230.02;;;11.81;53.36
25510;BME280;13413;52.336;21.200;2023-04-23T00:35:07;100228.17;;;11.78;53.80
25510;BME280;13413;52.336;21.200;2023-04-23T00:38:02;100221.85;;;11.82;53.72
25510;BME280;13413;52.336;21.200;2023-04-23T00:40:57;100225.85;;;11.83;53.60
25510;BME280;13413;52.336;21.200;2023-04-23T00:43:51;100219.94;;;11.85;53.70
25510;BME280;13413;52.336;21.200;2023-04-23T00:46:49;100220.41;;;11.80;53.44
25510;BME280;13413;52.336;21.200;2023-04-23T00:49:44;100221.89;;;11.69;53.85
25510;BME280;13413;52.336;21.200;2023-04-23T00:52:38;100222.39;;;11.67;53.96
25510;BME280;13413;52.336;21.200;2023-04-23T00:55:33;100222.00;;;11.71;53.91
25510;BME280;13413;52.336;21.200;2023-04-23T00:58:27;100221.02;;;11.76;53.90
25510;BME280;13413;52.336;21.200;2023-04-23T01:04:19;100221.38;;;11.75;53.84
25510;BME280;13413;52.336;21.200;2023-04-23T01:07:14;100221.91;;;11.70;53.92
25510;BME280;13413;52.336;21.200;2023-04-23T01:10:10;100221.69;;;11.66;54.02
25510;BME280;13413;52.336;21.200;2023-04-23T01:13:04;100223.65;;;11.59;54.01
25510;BME280;13413;52.336;21.200;2023-04-23T01:15:59;100225.44;;;11.50;54.18
25510;BME280;13413;52.336;21.200;2023-04-23T01:18:54;100225.08;;;11.47;54.30
25510;BME280;13413;52.336;21.200;2023-04-23T01:21:50;100224.09;;;11.49;54.38
25510;BME280;13413;52.336;21.200;2023-04-23T01:24:44;100225.58;;;11.50;54.37
25510;BME280;13413;52.336;21.200;2023-04-23T01:27:38;100223.79;;;11.39;54.36
25510;BME280;13413;52.336;21.200;2023-04-23T01:30:34;100220.98;;;11.22;54.47
25510;BME280;13413;52.336;21.200;2023-04-23T01:33:28;100224.52;;;11.12;54.69
25510;BME280;13413;52.336;21.200;2023-04-23T01:42:15;100220.07;;;10.99;54.99
25510;BME280;13413;52.336;21.200;2023-04-23T01:45:10;100219.52;;;10.96;55.21
25510;BME280;13413;52.336;21.200;2023-04-23T01:48:05;100217.84;;;11.02;55.14
25510;BME280;13413;52.336;21.200;2023-04-23T01:51:00;100218.16;;;11.02;55.08
25510;BME280;13413;52.336;21.200;2023-04-23T01:53:54;100218.38;;;10.97;55.17
25510;BME280;13413;52.336;21.200;2023-04-23T01:56:49;100222.34;;;10.87;55.29
25510;BME280;13413;52.336;21.200;2023-04-23T01:59:44;100222.45;;;10.79;55.33
25510;BME280;13413;52.336;21.200;2023-04-23T02:02:40;100225.67;;;10.79;55.51
25510;BME280;13413;52.336;21.200;2023-04-23T02:08:29;100218.48;;;10.84;55.58
25510;BME280;13413;52.336;21.200;2023-04-23T02:11:23;100220.14;;;10.85;55.68
25510;BME280;13413;52.336;21.200;2023-04-23T02:14:18;100220.30;;;10.85;55.73
25510;BME280;13413;52.336;21.200;2023-04-23T02:17:12;100215.63;;;10.86;55.79
25510;BME280;13413;52.336;21.200;2023-04-23T02:20:08;100214.88;;;10.83;55.74
25510;BME280;13413;52.336;21.200;2023-04-23T02:23:02;100216.02;;;10.67;55.82
25510;BME280;13413;52.336;21.200;2023-04-23T02:25:55;100216.67;;;10.54;56.00
25510;BME280;13413;52.336;21.200;2023-04-23T02:28:49;100214.83;;;10.52;56.00
25510;BME280;13413;52.336;21.200;2023-04-23T02:31:44;100218.02;;;10.49;56.15
25510;BME280;13413;52.336;21.200;2023-04-23T02:34:38;100213.89;;;10.41;56.42
25510;BME280;13413;52.336;21.200;2023-04-23T02:37:32;100214.38;;;10.26;56.55
25510;BME280;13413;52.336;21.200;2023-04-23T02:40:25;100214.48;;;10.20;56.82
25510;BME280;13413;52.336;21.200;2023-04-23T02:43:19;100217.77;;;10.19;56.80
25510;BME280;13413;52.336;21.200;2023-04-23T02:46:13;100214.64;;;10.16;56.89
25510;BME280;13413;52.336;21.200;2023-04-23T02:49:07;100212.05;;;10.13;56.92
25510;BME280;13413;52.336;21.200;2023-04-23T02:52:01;100211.21;;;10.13;57.12
25510;BME280;13413;52.336;21.200;2023-04-23T02:54:56;100210.09;;;10.14;57.10
25510;BME280;13413;52.336;21.200;2023-04-23T02:57:51;100215.06;;;10.15;57.02
25510;BME280;13413;52.336;21.200;2023-04-23T03:00:44;100215.52;;;10.16;57.26
25510;BME280;13413;52.336;21.200;2023-04-23T03:03:39;100210.77;;;10.19;57.17
25510;BME280;13413;52.336;21.200;2023-04-23T03:06:33;100210.05;;;10.27;57.23
25510;BME280;13413;52.336;21.200;2023-04-23T03:09:27;100211.89;;;10.20;57.21
25510;BME280;13413;52.336;21.200;2023-04-23T03:12:21;100212.45;;;10.18;57.21
25510;BME280;13413;52.336;21.200;2023-04-23T03:15:16;100212.79;;;10.13;57.31
25510;BME280;13413;52.336;21.200;2023-04-23T03:18:10;100206.77;;;10.07;57.31
25510;BME280;13413;52.336;21.200;2023-04-23T03:21:04;100211.14;;;10.05;57.56
25510;BME280;13413;52.336;21.200;2023-04-23T03:23:59;100206.80;;;9.99;57.66
25510;BME280;13413;52.336;21.200;2023-04-23T03:26:52;100208.91;;;9.95;57.74
25510;BME280;13413;52.336;21.200;2023-04-23T03:29:47;100207.22;;;9.93;57.65
25510;BME280;13413;52.336;21.200;2023-04-23T03:32:41;100205.42;;;9.93;57.86
25510;BME280;13413;52.336;21.200;2023-04-23T03:35:35;100204.45;;;9.94;57.86
25510;BME280;13413;52.336;21.200;2023-04-23T03:38:28;100205.89;;;9.95;57.78
25510;BME280;13413;52.336;21.200;2023-04-23T03:41:22;100203.32;;;9.99;57.97
25510;BME280;13413;52.336;21.200;2023-04-23T03:44:17;100204.86;;;9.98;57.95
25510;BME280;13413;52.336;21.200;2023-04-23T03:47:10;100203.33;;;9.93;57.92
25510;BME280;13413;52.336;21.200;2023-04-23T03:50:06;100201.36;;;9.94;58.14
25510;BME280;13413;52.336;21.200;2023-04-23T03:52:59;100204.27;;;10.03;58.17
25510;BME280;13413;52.336;21.200;2023-04-23T04:01:45;100202.66;;;9.98;58.24
25510;BME280;13413;52.336;21.200;2023-04-23T04:04:39;100207.50;;;9.98;58.27
25510;BME280;13413;52.336;21.200;2023-04-23T04:07:33;100208.30;;;10.02;58.34
25510;BME280;13413;52.336;21.200;2023-04-23T04:10:27;100206.54;;;10.08;58.33
25510;BME280;13413;52.336;21.200;2023-04-23T04:13:21;100206.65;;;10.13;58.20
25510;BME280;13413;52.336;21.200;2023-04-23T04:16:15;100208.75;;;10.19;58.16
25510;BME280;13413;52.336;21.200;2023-04-23T04:19:09;100210.85;;;10.27;58.24
25510;BME280;13413;52.336;21.200;2023-04-23T04:22:03;100209.55;;;10.37;58.13
25510;BME280;13413;52.336;21.200;2023-04-23T04:24:57;100206.10;;;10.42;57.96
25510;BME280;13413;52.336;21.200;2023-04-23T04:27:51;100207.55;;;10.49;57.90
25510;BME280;13413;52.336;21.200;2023-04-23T04:30:45;100207.50;;;10.56;57.84
25510;BME280;13413;52.336;21.200;2023-04-23T04:33:39;100209.63;;;10.63;57.84
25510;BME280;13413;52.336;21.200;2023-04-23T04:36:33;100206.67;;;10.69;57.79
25510;BME280;13413;52.336;21.200;2023-04-23T04:39:27;100207.52;;;10.75;57.50
25510;BME280;13413;52.336;21.200;2023-04-23T04:42:21;100209.98;;;10.86;57.48
25510;BME280;13413;52.336;21.200;2023-04-23T04:45:15;100215.25;;;10.96;57.40
25510;BME280;13413;52.336;21.200;2023-04-23T04:48:09;100213.20;;;11.04;57.25
25510;BME280;13413;52.336;21.200;2023-04-23T04:51:03;100215.20;;;11.13;57.17
25510;BME280;13413;52.336;21.200;2023-04-23T04:53:57;100214.71;;;11.20;57.06
25510;BME280;13413;52.336;21.200;2023-04-23T04:56:51;100213.29;;;11.28;56.76
25510;BME280;13413;52.336;21.200;2023-04-23T04:59:46;100211.73;;;11.37;56.63
25510;BME280;13413;52.336;21.200;2023-04-23T05:02:40;100214.11;;;11.51;56.60
25510;BME280;13413;52.336;21.200;2023-04-23T05:05:34;100209.64;;;11.60;56.45
25510;BME280;13413;52.336;21.200;2023-04-23T05:08:28;100211.12;;;11.70;56.27
25510;BME280;13413;52.336;21.200;2023-04-23T05:11:22;100211.16;;;11.78;56.00
25510;BME280;13413;52.336;21.200;2023-04-23T05:14:16;100210.31;;;11.89;55.98
25510;BME280;13413;52.336;21.200;2023-04-23T05:17:09;100212.09;;;11.99;55.67
25510;BME280;13413;52.336;21.200;2023-04-23T05:20:06;100210.82;;;12.10;55.43
25510;BME280;13413;52.336;21.200;2023-04-23T05:23:00;100205.74;;;12.22;55.42
25510;BME280;13413;52.336;21.200;2023-04-23T05:25:54;100203.00;;;12.34;55.32
25510;BME280;13413;52.336;21.200;2023-04-23T05:28:48;100204.19;;;12.43;54.84
25510;BME280;13413;52.336;21.200;2023-04-23T05:31:42;100201.40;;;12.57;54.65
25510;BME280;13413;52.336;21.200;2023-04-23T05:34:36;100207.42;;;12.68;54.28
25510;BME280;13413;52.336;21.200;2023-04-23T05:37:31;100207.68;;;12.80;54.11
25510;BME280;13413;52.336;21.200;2023-04-23T05:40:24;100209.15;;;12.90;53.75
25510;BME280;13413;52.336;21.200;2023-04-23T05:43:18;100207.34;;;13.09;53.73
25510;BME280;13413;52.336;21.200;2023-04-23T05:46:12;100209.84;;;13.23;53.55
25510;BME280;13413;52.336;21.200;2023-04-23T05:49:07;100209.44;;;13.37;53.21
25510;BME280;13413;52.336;21.200;2023-04-23T05:52:01;100207.48;;;13.49;52.90
25510;BME280;13413;52.336;21.200;2023-04-23T05:54:55;100208.83;;;13.65;52.68
25510;BME280;13413;52.336;21.200;2023-04-23T05:57:49;100200.45;;;13.81;52.62
25510;BME280;13413;52.336;21.200;2023-04-23T06:00:43;100198.80;;;13.92;51.94
25510;BME280;13413;52.336;21.200;2023-04-23T06:03:37;100200.02;;;14.09;52.15
25510;BME280;13413;52.336;21.200;2023-04-23T06:06:31;100197.05;;;14.26;51.74
25510;BME280;13413;52.336;21.200;2023-04-23T06:09:25;100193.17;;;14.41;51.14
25510;BME280;13413;52.336;21.200;2023-04-23T06:22:28;100202.27;;;15.14;49.38
25510;BME280;13413;52.336;21.200;2023-04-23T06:25:23;100203.68;;;15.30;48.72
25510;BME280;13413;52.336;21.200;2023-04-23T06:28:17;100198.34;;;15.43;47.88
25510;BME280;13413;52.336;21.200;2023-04-23T06:31:11;100201.21;;;15.53;47.55
25510;BME280;13413;52.336;21.200;2023-04-23T06:34:05;100199.59;;;15.70;48.17
25510;BME280;13413;52.336;21.200;2023-04-23T06:36:59;100201.61;;;15.86;47.02
25510;BME280;13413;52.336;21.200;2023-04-23T06:39:53;100197.94;;;16.03;46.64
25510;BME280;13413;52.336;21.200;2023-04-23T06:42:47;100194.59;;;16.18;45.72
25510;BME280;13413;52.336;21.200;2023-04-23T06:45:41;100195.58;;;16.32;45.86
25510;BME280;13413;52.336;21.200;2023-04-23T06:48:35;100190.34;;;16.50;45.73
25510;BME280;13413;52.336;21.200;2023-04-23T06:51:29;100188.11;;;16.68;45.16
25510;BME280;13413;52.336;21.200;2023-04-23T06:54:24;100186.81;;;16.85;44.72
25510;BME280;13413;52.336;21.200;2023-04-23T06:57:18;100183.25;;;16.99;43.91
25510;BME280;13413;52.336;21.200;2023-04-23T07:00:14;100184.27;;;17.09;43.53
25510;BME280;13413;52.336;21.200;2023-04-23T07:03:08;100179.23;;;17.21;43.13
25510;BME280;13413;52.336;21.200;2023-04-23T07:06:02;100183.09;;;17.35;42.30
25510;BME280;13413;52.336;21.200;2023-04-23T07:08:57;100181.48;;;17.53;41.97
25510;BME280;13413;52.336;21.200;2023-04-23T07:11:51;100178.35;;;17.67;41.57
25510;BME280;13413;52.336;21.200;2023-04-23T07:14:45;100175.14;;;17.79;40.73
25510;BME280;13413;52.336;21.200;2023-04-23T07:17:40;100175.66;;;18.00;40.58
25510;BME280;13413;52.336;21.200;2023-04-23T07:20:34;100177.89;;;18.18;39.71
25510;BME280;13413;52.336;21.200;2023-04-23T07:23:27;100180.89;;;18.30;39.08
25510;BME280;13413;52.336;21.200;2023-04-23T07:26:22;100177.96;;;18.51;39.13
25510;BME280;13413;52.336;21.200;2023-04-23T07:29:15;100172.29;;;18.65;38.43
25510;BME280;13413;52.336;21.200;2023-04-23T07:32:09;100171.44;;;18.72;37.69
25510;BME280;13413;52.336;21.200;2023-04-23T07:35:03;100171.08;;;18.87;37.52
25510;BME280;13413;52.336;21.200;2023-04-23T07:37:58;100168.25;;;19.04;37.47
25510;BME280;13413;52.336;21.200;2023-04-23T07:40:52;100168.17;;;19.18;37.33
25510;BME280;13413;52.336;21.200;2023-04-23T07:43:46;100167.23;;;19.32;37.35
25510;BME280;13413;52.336;21.200;2023-04-23T07:46:39;100164.30;;;19.37;36.52
25510;BME280;13413;52.336;21.200;2023-04-23T07:49:37;100162.44;;;19.41;35.81
25510;BME280;13413;52.336;21.200;2023-04-23T07:52:32;100163.06;;;19.47;35.70
25510;BME280;13413;52.336;21.200;2023-04-23T07:55:26;100161.48;;;19.55;35.56
25510;BME280;13413;52.336;21.200;2023-04-23T07:58:20;100167.14;;;19.63;35.56
25510;BME280;13413;52.336;21.200;2023-04-23T08:01:15;100165.23;;;19.77;36.07
25510;BME280;13413;52.336;21.200;2023-04-23T08:04:10;100160.08;;;19.87;35.26
25510;BME280;13413;52.336;21.200;2023-04-23T08:07:04;100160.95;;;19.91;34.47
25510;BME280;13413;52.336;21.200;2023-04-23T08:09:58;100163.45;;;19.98;34.80
25510;BME280;13413;52.336;21.200;2023-04-23T08:12:51;100161.68;;;20.19;34.85
25510;BME280;13413;52.336;21.200;2023-04-23T08:15:46;100158.24;;;20.19;33.87
25510;BME280;13413;52.336;21.200;2023-04-23T08:18:40;100156.37;;;20.19;33.69
25510;BME280;13413;52.336;21.200;2023-04-23T08:21:34;100153.40;;;20.31;33.34
25510;BME280;13413;52.336;21.200;2023-04-23T08:24:28;100154.91;;;20.28;33.05
25510;BME280;13413;52.336;21.200;2023-04-23T08:27:21;100149.28;;;20.46;33.36
25510;BME280;13413;52.336;21.200;2023-04-23T08:30:16;100142.78;;;20.51;32.76
25510;BME280;13413;52.336;21.200;2023-04-23T08:33:08;100148.27;;;20.60;32.86
25510;BME280;13413;52.336;21.200;2023-04-23T08:42:10;100146.83;;;20.82;31.73
25510;BME280;13413;52.336;21.200;2023-04-23T08:45:09;100141.16;;;20.77;31.47
25510;BME280;13413;52.336;21.200;2023-04-23T08:48:05;100139.66;;;20.82;31.72
25510;BME280;13413;52.336;21.200;2023-04-23T08:50:59;100135.79;;;20.94;31.41
25510;BME280;13413;52.336;21.200;2023-04-23T08:53:57;100134.28;;;21.06;31.50
25510;BME280;13413;52.336;21.200;2023-04-23T08:56:52;100132.98;;;21.15;31.11
25510;BME280;13413;52.336;21.200;2023-04-23T09:00:08;100128.53;;;21.22;31.13
25510;BME280;13413;52.336;21.200;2023-04-23T09:03:03;100127.54;;;21.43;31.17
25510;BME280;13413;52.336;21.200;2023-04-23T09:05:57;100127.83;;;21.44;30.99
25510;BME280;13413;52.336;21.200;2023-04-23T09:08:52;100120.85;;;21.53;31.07
25510;BME280;13413;52.336;21.200;2023-04-23T09:11:48;100124.27;;;21.59;30.59
25510;BME280;13413;52.336;21.200;2023-04-23T09:14:42;100123.12;;;21.66;30.61
25510;BME280;13413;52.336;21.200;2023-04-23T09:17:37;100120.81;;;21.79;30.62
25510;BME280;13413;52.336;21.200;2023-04-23T09:20:31;100117.31;;;21.94;30.62
25510;BME280;13413;52.336;21.200;2023-04-23T09:23:25;100114.80;;;22.08;30.34
25510;BME280;13413;52.336;21.200;2023-04-23T09:26:21;100110.35;;;22.11;30.20
25510;BME280;13413;52.336;21.200;2023-04-23T09:29:16;100103.30;;;22.34;30.68
25510;BME280;13413;52.336;21.200;2023-04-23T09:32:12;100103.55;;;22.75;30.36
25510;BME280;13413;52.336;21.200;2023-04-23T09:35:08;100103.63;;;22.87;30.06
25510;BME280;13413;52.336;21.200;2023-04-23T09:38:03;100111.37;;;22.97;29.97
25510;BME280;13413;52.336;21.200;2023-04-23T09:41:00;100105.77;;;23.00;28.59
25510;BME280;13413;52.336;21.200;2023-04-23T09:44:13;100106.04;;;22.82;28.78
25510;BME280;13413;52.336;21.200;2023-04-23T09:47:10;100099.93;;;22.83;28.99
25510;BME280;13413;52.336;21.200;2023-04-23T09:50:06;100096.83;;;22.99;28.79
25510;BME280;13413;52.336;21.200;2023-04-23T09:52:58;100092.27;;;23.09;29.05
25510;BME280;13413;52.336;21.200;2023-04-23T09:55:53;100095.55;;;23.16;28.49
25510;BME280;13413;52.336;21.200;2023-04-23T09:58:49;100092.18;;;23.13;28.50
25510;BME280;13413;52.336;21.200;2023-04-23T10:01:45;100091.33;;;23.18;28.45
25510;BME280;13413;52.336;21.200;2023-04-23T10:04:39;100084.95;;;23.33;28.41
25510;BME280;13413;52.336;21.200;2023-04-23T10:07:33;100087.66;;;23.37;27.65
25510;BME280;13413;52.336;21.200;2023-04-23T10:10:28;100084.88;;;23.26;27.33
25510;BME280;13413;52.336;21.200;2023-04-23T10:13:23;100082.30;;;23.04;27.01
25510;BME280;13413;52.336;21.200;2023-04-23T10:16:16;100074.90;;;23.07;27.14
25510;BME280;13413;52.336;21.200;2023-04-23T10:19:14;100073.48;;;23.22;27.14
25510;BME280;13413;52.336;21.200;2023-04-23T10:22:11;100072.73;;;23.47;26.78
25510;BME280;13413;52.336;21.200;2023-04-23T10:25:10;100064.96;;;23.60;26.69
25510;BME280;13413;52.336;21.200;2023-04-23T10:28:09;100057.05;;;23.54;26.52
25510;BME280;13413;52.336;21.200;2023-04-23T10:31:05;100060.48;;;23.68;26.94
25510;BME280;13413;52.336;21.200;2023-04-23T10:33:57;100059.02;;;23.64;26.26
25510;BME280;13413;52.336;21.200;2023-04-23T10:36:51;100055.21;;;23.60;26.50
25510;BME280;13413;52.336;21.200;2023-04-23T10:39:49;100050.61;;;24.10;26.64
25510;BME280;13413;52.336;21.200;2023-04-23T10:42:44;100049.29;;;24.35;25.34
25510;BME280;13413;52.336;21.200;2023-04-23T10:45:39;100041.89;;;24.15;24.89
25510;BME280;13413;52.336;21.200;2023-04-23T10:48:51;100042.14;;;24.12;25.16
25510;BME280;13413;52.336;21.200;2023-04-23T10:52:02;100036.14;;;24.21;25.57
25510;BME280;13413;52.336;21.200;2023-04-23T10:57:59;100030.69;;;24.46;25.04
25510;BME280;13413;52.336;21.200;2023-04-23T11:00:51;100030.17;;;24.70;25.15
25510;BME280;13413;52.336;21.200;2023-04-23T11:03:45;100024.33;;;25.24;24.92
25510;BME280;13413;52.336;21.200;2023-04-23T11:06:59;100020.71;;;25.20;24.32
25510;BME280;13413;52.336;21.200;2023-04-23T11:09:58;100020.03;;;24.95;24.48
25510;BME280;13413;52.336;21.200;2023-04-23T11:12:54;100015.56;;;25.10;24.46
25510;BME280;13413;52.336;21.200;2023-04-23T11:15:47;100016.48;;;25.03;24.27
25510;BME280;13413;52.336;21.200;2023-04-23T11:18:57;100014.40;;;25.12;24.54
25510;BME280;13413;52.336;21.200;2023-04-23T11:22:03;100013.90;;;24.91;24.48
25510;BME280;13413;52.336;21.200;2023-04-23T11:24:56;100009.83;;;24.73;24.14
25510;BME280;13413;52.336;21.200;2023-04-23T11:27:49;100004.36;;;24.51;24.29
25510;BME280;13413;52.336;21.200;2023-04-23T11:30:43;100003.41;;;24.75;24.12
25510;BME280;13413;52.336;21.200;2023-04-23T11:33:36;100002.90;;;25.02;24.08
25510;BME280;13413;52.336;21.200;2023-04-23T11:36:29;99999.84;;;25.06;24.41
25510;BME280;13413;52.336;21.200;2023-04-23T11:39:23;100002.50;;;25.04;24.77
25510;BME280;13413;52.336;21.200;2023-04-23T11:42:17;99999.75;;;25.22;24.57
25510;BME280;13413;52.336;21.200;2023-04-23T11:45:18;99991.77;;;25.63;24.52
25510;BME280;13413;52.336;21.200;2023-04-23T11:48:11;99986.98;;;25.56;24.39
25510;BME280;13413;52.336;21.200;2023-04-23T11:51:04;99988.70;;;25.28;24.79
25510;BME280;13413;52.336;21.200;2023-04-23T11:54:04;99982.22;;;25.55;25.02
25510;BME280;13413;52.336;21.200;2023-04-23T11:56:57;99986.52;;;25.84;24.57
25510;BME280;13413;52.336;21.200;2023-04-23T11:59:56;99986.36;;;25.75;24.95
25510;BME280;13413;52.336;21.200;2023-04-23T12:03:07;99987.84;;;25.62;24.88
25510;BME280;13413;52.336;21.200;2023-04-23T12:06:01;99976.21;;;25.50;24.87
25510;BME280;13413;52.336;21.200;2023-04-23T12:08:55;99972.80;;;25.25;25.06
25510;BME280;13413;52.336;21.200;2023-04-23T12:11:49;99983.85;;;25.10;25.11
25510;BME280;13413;52.336;21.200;2023-04-23T12:14:44;99976.38;;;25.08;25.04
25510;BME280;13413;52.336;21.200;2023-04-23T12:17:39;99972.95;;;25.09;25.20
25510;BME280;13413;52.336;21.200;2023-04-23T12:20:33;99972.36;;;25.09;25.18
25510;BME280;13413;52.336;21.200;2023-04-23T12:23:28;99959.87;;;25.17;25.16
25510;BME280;13413;52.336;21.200;2023-04-23T12:26:23;99960.50;;;25.31;25.02
25510;BME280;13413;52.336;21.200;2023-04-23T12:29:18;99958.13;;;25.51;25.27
25510;BME280;13413;52.336;21.200;2023-04-23T12:32:13;99952.56;;;25.74;24.60
25510;BME280;13413;52.336;21.200;2023-04-23T12:35:09;99950.94;;;25.61;24.95
25510;BME280;13413;52.336;21.200;2023-04-23T12:38:05;99946.58;;;25.41;24.68
25510;BME280;13413;52.336;21.200;2023-04-23T12:40:59;99938.19;;;25.36;25.12
25510;BME280;13413;52.336;21.200;2023-04-23T12:43:54;99937.91;;;25.73;24.84
25510;BME280;13413;52.336;21.200;2023-04-23T12:46:53;99940.98;;;25.88;24.53
25510;BME280;13413;52.336;21.200;2023-04-23T12:49:49;99931.23;;;25.60;24.96
25510;BME280;13413;52.336;21.200;2023-04-23T12:52:44;99930.25;;;25.52;25.04
25510;BME280;13413;52.336;21.200;2023-04-23T12:55:38;99928.61;;;25.36;25.33
25510;BME280;13413;52.336;21.200;2023-04-23T12:58:33;99928.38;;;25.23;25.45
25510;BME280;13413;52.336;21.200;2023-04-23T13:01:27;99927.14;;;24.98;25.14
25510;BME280;13413;52.336;21.200;2023-04-23T13:04:21;99927.40;;;24.92;25.00
25510;BME280;13413;52.336;21.200;2023-04-23T13:07:15;99924.10;;;25.16;25.09
25510;BME280;13413;52.336;21.200;2023-04-23T13:10:10;99909.03;;;25.56;25.14
25510;BME280;13413;52.336;21.200;2023-04-23T13:13:14;99913.80;;;25.49;24.61
25510;BME280;13413;52.336;21.200;2023-04-23T13:16:09;99911.98;;;25.24;24.80
25510;BME280;13413;52.336;21.200;2023-04-23T13:19:03;99906.10;;;25.35;25.41
25510;BME280;13413;52.336;21.200;2023-04-23T13:21:57;99904.08;;;25.70;25.28
25510;BME280;13413;52.336;21.200;2023-04-23T13:24:51;99893.16;;;25.50;24.77
25510;BME280;13413;52.336;21.200;2023-04-23T13:27:45;99889.48;;;25.40;25.21
25510;BME280;13413;52.336;21.200;2023-04-23T13:30:40;99888.58;;;25.61;25.34
25510;BME280;13413;52.336;21.200;2023-04-23T13:36:30;99892.03;;;25.28;24.70
25510;BME280;13413;52.336;21.200;2023-04-23T13:39:24;99886.73;;;25.04;25.06
25510;BME280;13413;52.336;21.200;2023-04-23T13:42:19;99883.20;;;25.11;25.12
25510;BME280;13413;52.336;21.200;2023-04-23T13:45:13;99876.74;;;25.32;25.14
25510;BME280;13413;52.336;21.200;2023-04-23T13:48:07;99871.83;;;25.27;24.77
25510;BME280;13413;52.336;21.200;2023-04-23T13:51:02;99873.03;;;25.05;25.04
25510;BME280;13413;52.336;21.200;2023-04-23T13:53:56;99869.61;;;25.05;25.03
25510;BME280;13413;52.336;21.200;2023-04-23T13:56:50;99869.17;;;25.06;24.97
25510;BME280;13413;52.336;21.200;2023-04-23T13:59:44;99862.19;;;24.87;24.86
25510;BME280;13413;52.336;21.200;2023-04-23T14:02:37;99858.59;;;24.77;24.88
25510;BME280;13413;52.336;21.200;2023-04-23T14:05:32;99852.84;;;24.76;24.90
25510;BME280;13413;52.336;21.200;2023-04-23T14:08:26;99853.96;;;24.79;24.98
25510;BME280;13413;52.336;21.200;2023-04-23T14:11:20;99852.83;;;24.70;24.78
25510;BME280;13413;52.336;21.200;2023-04-23T14:14:14;99845.30;;;24.59;25.00
25510;BME280;13413;52.336;21.200;2023-04-23T14:24:17;99831.67;;;25.05;25.68
25510;BME280;13413;52.336;21.200;2023-04-23T14:27:14;99830.94;;;25.15;24.88
25510;BME280;13413;52.336;21.200;2023-04-23T14:30:15;99833.30;;;24.90;25.15
25510;BME280;13413;52.336;21.200;2023-04-23T14:33:10;99834.13;;;24.67;25.23
25510;BME280;13413;52.336;21.200;2023-04-23T14:36:04;99827.95;;;24.68;25.29
25510;BME280;13413;52.336;21.200;2023-04-23T14:38:58;99827.17;;;24.68;25.38
25510;BME280;13413;52.336;21.200;2023-04-23T14:41:51;99824.73;;;24.75;25.49
25510;BME280;13413;52.336;21.200;2023-04-23T14:44:45;99824.14;;;24.78;25.57
25510;BME280;13413;52.336;21.200;2023-04-23T14:47:40;99821.71;;;24.74;25.53
25510;BME280;13413;52.336;21.200;2023-04-23T14:50:34;99821.94;;;24.56;25.69
25510;BME280;13413;52.336;21.200;2023-04-23T14:53:27;99820.11;;;24.64;25.69
25510;BME280;13413;52.336;21.200;2023-04-23T14:56:22;99819.92;;;24.56;25.70
25510;BME280;13413;52.336;21.200;2023-04-23T14:59:15;99816.75;;;24.44;25.64
25510;BME280;13413;52.336;21.200;2023-04-23T15:02:09;99819.73;;;24.45;25.92
25510;BME280;13413;52.336;21.200;2023-04-23T15:05:05;99817.02;;;24.63;26.12
25510;BME280;13413;52.336;21.200;2023-04-23T15:08:00;99814.54;;;24.61;26.00
25510;BME280;13413;52.336;21.200;2023-04-23T15:10:54;99817.29;;;24.52;25.78
25510;BME280;13413;52.336;21.200;2023-04-23T15:14:00;99811.95;;;24.30;25.78
25510;BME280;13413;52.336;21.200;2023-04-23T15:16:58;99810.98;;;24.47;26.01
25510;BME280;13413;52.336;21.200;2023-04-23T15:19:51;99802.89;;;24.30;25.85
25510;BME280;13413;52.336;21.200;2023-04-23T15:22:46;99799.94;;;24.22;26.12
25510;BME280;13413;52.336;21.200;2023-04-23T15:25:40;99797.42;;;24.30;26.13
25510;BME280;13413;52.336;21.200;2023-04-23T15:28:34;99797.71;;;24.45;26.34
25510;BME280;13413;52.336;21.200;2023-04-23T15:31:28;99803.32;;;24.57;26.27
25510;BME280;13413;52.336;21.200;2023-04-23T15:34:22;99795.73;;;24.40;26.11
25510;BME280;13413;52.336;21.200;2023-04-23T15:37:16;99795.39;;;24.22;26.08
25510;BME280;13413;52.336;21.200;2023-04-23T15:40:11;99788.25;;;24.19;26.24
25510;BME280;13413;52.336;21.200;2023-04-23T15:43:03;99785.40;;;24.25;26.40
25510;BME280;13413;52.336;21.200;2023-04-23T15:45:57;99783.39;;;24.25;26.57
25510;BME280;13413;52.336;21.200;2023-04-23T15:48:50;99784.13;;;24.19;26.43
25510;BME280;13413;52.336;21.200;2023-04-23T15:51:44;99783.04;;;24.13;26.52
25510;BME280;13413;52.336;21.200;2023-04-23T15:54:38;99775.84;;;24.12;26.45